sensor_id;sensor_type;location;lat;lon;timestamp;pressure;altitude;pressure_sealevel;temperature;humidity
64053;BME280;50299;49.524;8.536;2024-03-17T00:02:20;101332.41;;;4.93;65.31
64053;BME280;50299;49.524;8.536;2024-03-17T00:04:46;101327.78;;;4.99;63.85
64053;BME280;50299;49.524;8.536;2024-03-17T00:07:12;101329.44;;;5.00;62.71
64053;BME280;50299;49.524;8.536;2024-03-17T00:09:38;101324.47;;;4.97;63.76
64053;BME280;50299;49.524;8.536;2024-03-17T00:12:04;101329.41;;;4.89;64.40
64053;BME280;50299;49.524;8.536;2024-03-17T00:14:29;101328.56;;;4.89;64.27
64053;BME280;50299;49.524;8.536;2024-03-17T00:16:55;101332.38;;;4.83;65.46
64053;BME280;50299;49.524;8.536;2024-03-17T00:19:20;101327.97;;;4.82;65.31
64053;BME280;50299;49.524;8.536;2024-03-17T00:21:49;101322.75;;;4.80;64.43
64053;BME280;50299;49.524;8.536;2024-03-17T00:24:18;101317.25;;;4.75;65.04
64053;BME280;50299;49.524;8.536;2024-03-17T00:26:45;101316.16;;;4.71;65.92
64053;BME280;50299;49.524;8.536;2024-03-17T00:29:10;101307.66;;;4.67;65.42
64053;BME280;50299;49.524;8.536;2024-03-17T00:31:36;101309.84;;;4.60;65.01
64053;BME280;50299;49.524;8.536;2024-03-17T00:34:02;101310.31;;;4.47;65.60
64053;BME280;50299;49.524;8.536;2024-03-17T00:36:31;101308.28;;;4.27;65.04
64053;BME280;50299;49.524;8.536;2024-03-17T00:38:56;101314.03;;;4.26;65.74
64053;BME280;50299;49.524;8.536;2024-03-17T00:41:22;101305.53;;;4.27;66.23
64053;BME280;50299;49.524;8.536;2024-03-17T00:43:49;101299.75;;;4.18;65.65
64053;BME280;50299;49.524;8.536;2024-03-17T00:46:15;101298.06;;;4.07;65.21
64053;BME280;50299;49.524;8.536;2024-03-17T00:48:41;101296.69;;;4.05;65.73
64053;BME280;50299;49.524;8.536;2024-03-17T00:51:07;101288.69;;;3.98;64.34
64053;BME280;50299;49.524;8.536;2024-03-17T00:53:32;101284.81;;;3.89;65.28
64053;BME280;50299;49.524;8.536;2024-03-17T00:55:58;101279.63;;;3.87;66.20
64053;BME280;50299;49.524;8.536;2024-03-17T00:58:24;101284.28;;;3.87;66.14
64053;BME280;50299;49.524;8.536;2024-03-17T01:00:52;101292.19;;;3.88;66.86
64053;BME280;50299;49.524;8.536;2024-03-17T01:03:18;101288.91;;;3.86;66.06
64053;BME280;50299;49.524;8.536;2024-03-17T01:05:44;101285.59;;;3.84;66.45
64053;BME280;50299;49.524;8.536;2024-03-17T01:08:12;101279.84;;;3.81;65.68
64053;BME280;50299;49.524;8.536;2024-03-17T01:10:39;101268.84;;;3.71;66.82
64053;BME280;50299;49.524;8.536;2024-03-17T01:13:09;101266.34;;;3.69;66.78
64053;BME280;50299;49.524;8.536;2024-03-17T01:15:35;101260.31;;;3.62;65.86
64053;BME280;50299;49.524;8.536;2024-03-17T01:18:03;101261.91;;;3.58;65.38
64053;BME280;50299;49.524;8.536;2024-03-17T01:20:30;101261.84;;;3.53;66.82
64053;BME280;50299;49.524;8.536;2024-03-17T01:22:55;101272.78;;;3.53;67.30
64053;BME280;50299;49.524;8.536;2024-03-17T01:25:24;101267.81;;;3.44;67.52
64053;BME280;50299;49.524;8.536;2024-03-17T01:27:55;101269.72;;;3.44;67.47
64053;BME280;50299;49.524;8.536;2024-03-17T01:30:21;101263.75;;;3.47;67.35
64053;BME280;50299;49.524;8.536;2024-03-17T01:32:47;101262.66;;;3.48;67.57
64053;BME280;50299;49.524;8.536;2024-03-17T01:35:14;101257.44;;;3.47;66.34
64053;BME280;50299;49.524;8.536;2024-03-17T01:37:40;101260.16;;;3.41;66.83
64053;BME280;50299;49.524;8.536;2024-03-17T01:40:07;101255.69;;;3.30;67.39
64053;BME280;50299;49.524;8.536;2024-03-17T01:42:39;101254.22;;;3.23;66.62
64053;BME280;50299;49.524;8.536;2024-03-17T01:45:29;101252.09;;;3.25;67.35
64053;BME280;50299;49.524;8.536;2024-03-17T01:47:55;101247.44;;;3.25;67.98
64053;BME280;50299;49.524;8.536;2024-03-17T01:50:26;101239.47;;;3.24;68.06
64053;BME280;50299;49.524;8.536;2024-03-17T01:52:56;101237.50;;;3.19;67.69
64053;BME280;50299;49.524;8.536;2024-03-17T01:55:26;101235.88;;;3.18;67.02
64053;BME280;50299;49.524;8.536;2024-03-17T01:57:52;101227.66;;;3.18;69.94
64053;BME280;50299;49.524;8.536;2024-03-17T02:00:18;101229.78;;;3.11;66.53
64053;BME280;50299;49.524;8.536;2024-03-17T02:02:44;101234.63;;;3.04;65.63
64053;BME280;50299;49.524;8.536;2024-03-17T02:05:10;101221.41;;;2.90;65.92
64053;BME280;50299;49.524;8.536;2024-03-17T02:07:36;101221.72;;;2.94;65.18
64053;BME280;50299;49.524;8.536;2024-03-17T02:10:01;101209.38;;;2.59;65.49
64053;BME280;50299;49.524;8.536;2024-03-17T02:12:29;101219.06;;;2.50;67.53
64053;BME280;50299;49.524;8.536;2024-03-17T02:14:59;101221.34;;;2.58;68.31
64053;BME280;50299;49.524;8.536;2024-03-17T02:17:25;101214.28;;;2.62;68.39
64053;BME280;50299;49.524;8.536;2024-03-17T02:19:51;101217.88;;;2.63;67.82
64053;BME280;50299;49.524;8.536;2024-03-17T02:22:17;101211.78;;;2.56;67.58
64053;BME280;50299;49.524;8.536;2024-03-17T02:24:44;101208.25;;;2.55;67.83
64053;BME280;50299;49.524;8.536;2024-03-17T02:27:09;101203.91;;;2.59;67.02
64053;BME280;50299;49.524;8.536;2024-03-17T02:29:35;101194.94;;;2.64;66.64
64053;BME280;50299;49.524;8.536;2024-03-17T02:32:11;101199.88;;;2.40;67.23
64053;BME280;50299;49.524;8.536;2024-03-17T02:34:38;101193.84;;;2.38;67.20
64053;BME280;50299;49.524;8.536;2024-03-17T02:37:04;101197.97;;;2.40;66.53
64053;BME280;50299;49.524;8.536;2024-03-17T02:39:31;101200.06;;;2.33;66.34
64053;BME280;50299;49.524;8.536;2024-03-17T02:42:09;101199.25;;;2.33;66.64
64053;BME280;50299;49.524;8.536;2024-03-17T02:44:37;101200.06;;;2.33;67.40
64053;BME280;50299;49.524;8.536;2024-03-17T02:47:04;101186.94;;;2.30;67.00
64053;BME280;50299;49.524;8.536;2024-03-17T02:49:31;101197.78;;;2.25;67.22
64053;BME280;50299;49.524;8.536;2024-03-17T02:52:09;101191.38;;;2.36;65.92
64053;BME280;50299;49.524;8.536;2024-03-17T02:54:36;101192.69;;;2.34;66.13
64053;BME280;50299;49.524;8.536;2024-03-17T02:57:06;101190.03;;;2.17;66.47
64053;BME280;50299;49.524;8.536;2024-03-17T02:59:34;101193.22;;;2.09;67.01
64053;BME280;50299;49.524;8.536;2024-03-17T03:02:00;101192.41;;;2.08;67.82
64053;BME280;50299;49.524;8.536;2024-03-17T03:04:26;101200.03;;;2.06;67.20
64053;BME280;50299;49.524;8.536;2024-03-17T03:06:52;101203.63;;;1.90;66.45
64053;BME280;50299;49.524;8.536;2024-03-17T03:09:17;101205.16;;;1.81;66.69
64053;BME280;50299;49.524;8.536;2024-03-17T03:11:52;101196.06;;;1.75;66.64
64053;BME280;50299;49.524;8.536;2024-03-17T03:14:20;101199.44;;;1.82;66.87
64053;BME280;50299;49.524;8.536;2024-03-17T03:16:45;101200.88;;;1.68;67.25
64053;BME280;50299;49.524;8.536;2024-03-17T03:19:11;101195.41;;;1.68;67.10
64053;BME280;50299;49.524;8.536;2024-03-17T03:21:36;101190.94;;;1.79;67.13
64053;BME280;50299;49.524;8.536;2024-03-17T03:24:02;101196.72;;;1.82;68.02
64053;BME280;50299;49.524;8.536;2024-03-17T03:26:30;101201.56;;;1.97;69.00
64053;BME280;50299;49.524;8.536;2024-03-17T03:28:56;101209.09;;;2.12;69.82
64053;BME280;50299;49.524;8.536;2024-03-17T03:31:22;101217.47;;;2.27;69.83
64053;BME280;50299;49.524;8.536;2024-03-17T03:33:47;101213.00;;;2.43;70.94
64053;BME280;50299;49.524;8.536;2024-03-17T03:36:14;101216.47;;;2.60;71.37
64053;BME280;50299;49.524;8.536;2024-03-17T03:38:42;101211.38;;;2.69;69.80
64053;BME280;50299;49.524;8.536;2024-03-17T03:41:14;101209.75;;;2.46;67.85
64053;BME280;50299;49.524;8.536;2024-03-17T03:43:40;101210.50;;;2.14;66.83
64053;BME280;50299;49.524;8.536;2024-03-17T03:46:07;101208.31;;;2.16;66.46
64053;BME280;50299;49.524;8.536;2024-03-17T03:48:33;101208.91;;;2.18;67.05
64053;BME280;50299;49.524;8.536;2024-03-17T03:51:08;101205.91;;;2.20;66.45
64053;BME280;50299;49.524;8.536;2024-03-17T03:53:35;101200.41;;;2.15;65.67
64053;BME280;50299;49.524;8.536;2024-03-17T03:56:03;101205.53;;;2.11;64.85
64053;BME280;50299;49.524;8.536;2024-03-17T03:58:35;101198.69;;;2.09;66.64
64053;BME280;50299;49.524;8.536;2024-03-17T04:01:12;101203.00;;;2.05;66.76
64053;BME280;50299;49.524;8.536;2024-03-17T04:03:38;101195.19;;;1.91;66.92
64053;BME280;50299;49.524;8.536;2024-03-17T04:06:05;101187.44;;;1.83;67.66
64053;BME280;50299;49.524;8.536;2024-03-17T04:08:32;101199.09;;;1.57;66.88
64053;BME280;50299;49.524;8.536;2024-03-17T04:10:58;101197.50;;;1.61;66.83
64053;BME280;50299;49.524;8.536;2024-03-17T04:13:24;101195.44;;;1.51;65.84
64053;BME280;50299;49.524;8.536;2024-03-17T04:15:49;101192.97;;;1.50;66.52
64053;BME280;50299;49.524;8.536;2024-03-17T04:18:15;101197.03;;;1.47;66.27
64053;BME280;50299;49.524;8.536;2024-03-17T04:20:43;101196.94;;;1.42;66.30
64053;BME280;50299;49.524;8.536;2024-03-17T04:23:08;101188.44;;;1.38;66.79
64053;BME280;50299;49.524;8.536;2024-03-17T04:25:34;101195.84;;;1.26;65.80
64053;BME280;50299;49.524;8.536;2024-03-17T04:27:59;101200.25;;;1.27;66.06
64053;BME280;50299;49.524;8.536;2024-03-17T04:30:25;101196.44;;;1.28;65.61
64053;BME280;50299;49.524;8.536;2024-03-17T04:32:50;101197.19;;;1.24;65.82
64053;BME280;50299;49.524;8.536;2024-03-17T04:35:17;101200.41;;;1.20;67.36
64053;BME280;50299;49.524;8.536;2024-03-17T04:37:43;101202.22;;;1.15;67.76
64053;BME280;50299;49.524;8.536;2024-03-17T04:40:09;101198.09;;;1.12;67.27
64053;BME280;50299;49.524;8.536;2024-03-17T04:42:35;101194.22;;;1.08;67.39
64053;BME280;50299;49.524;8.536;2024-03-17T04:45:00;101200.06;;;1.00;66.61
64053;BME280;50299;49.524;8.536;2024-03-17T04:47:26;101201.38;;;0.97;66.75
64053;BME280;50299;49.524;8.536;2024-03-17T04:49:51;101196.75;;;0.98;66.96
64053;BME280;50299;49.524;8.536;2024-03-17T04:52:18;101205.78;;;0.99;66.84
64053;BME280;50299;49.524;8.536;2024-03-17T04:54:43;101200.72;;;0.90;67.24
64053;BME280;50299;49.524;8.536;2024-03-17T04:57:09;101193.63;;;0.89;67.70
64053;BME280;50299;49.524;8.536;2024-03-17T04:59:35;101193.22;;;0.97;67.84
64053;BME280;50299;49.524;8.536;2024-03-17T05:02:01;101188.50;;;1.10;69.77
64053;BME280;50299;49.524;8.536;2024-03-17T05:04:28;101181.34;;;1.20;68.46
64053;BME280;50299;49.524;8.536;2024-03-17T05:06:53;101176.03;;;1.31;68.78
64053;BME280;50299;49.524;8.536;2024-03-17T05:09:19;101187.41;;;1.39;68.50
64053;BME280;50299;49.524;8.536;2024-03-17T05:11:45;101192.97;;;1.50;67.85
64053;BME280;50299;49.524;8.536;2024-03-17T05:14:13;101198.34;;;1.61;67.71
64053;BME280;50299;49.524;8.536;2024-03-17T05:16:39;101194.41;;;1.52;67.53
64053;BME280;50299;49.524;8.536;2024-03-17T05:19:05;101195.66;;;1.66;67.64
64053;BME280;50299;49.524;8.536;2024-03-17T05:21:30;101196.13;;;1.80;68.63
64053;BME280;50299;49.524;8.536;2024-03-17T05:24:01;101201.22;;;1.93;67.64
64053;BME280;50299;49.524;8.536;2024-03-17T05:26:27;101198.63;;;2.04;69.24
64053;BME280;50299;49.524;8.536;2024-03-17T05:28:53;101198.19;;;2.12;68.15
64053;BME280;50299;49.524;8.536;2024-03-17T05:31:20;101201.22;;;2.15;67.45
64053;BME280;50299;49.524;8.536;2024-03-17T05:33:47;101195.28;;;2.18;66.44
64053;BME280;50299;49.524;8.536;2024-03-17T05:36:13;101193.31;;;2.14;67.28
64053;BME280;50299;49.524;8.536;2024-03-17T05:38:38;101196.59;;;2.16;67.65
64053;BME280;50299;49.524;8.536;2024-03-17T05:41:08;101188.53;;;2.26;68.76
64053;BME280;50299;49.524;8.536;2024-03-17T05:43:37;101192.66;;;2.29;66.00
64053;BME280;50299;49.524;8.536;2024-03-17T05:46:05;101188.53;;;2.26;66.25
64053;BME280;50299;49.524;8.536;2024-03-17T05:48:35;101184.13;;;2.25;66.78
64053;BME280;50299;49.524;8.536;2024-03-17T05:51:11;101184.41;;;2.24;66.60
64053;BME280;50299;49.524;8.536;2024-03-17T05:53:39;101201.09;;;2.27;68.31
64053;BME280;50299;49.524;8.536;2024-03-17T05:56:06;101193.78;;;2.33;68.55
64053;BME280;50299;49.524;8.536;2024-03-17T05:58:39;101189.28;;;2.43;69.84
64053;BME280;50299;49.524;8.536;2024-03-17T06:01:05;101193.44;;;2.51;65.99
64053;BME280;50299;49.524;8.536;2024-03-17T06:03:33;101192.63;;;2.51;67.68
64053;BME280;50299;49.524;8.536;2024-03-17T06:06:01;101198.44;;;2.59;68.24
64053;BME280;50299;49.524;8.536;2024-03-17T06:08:27;101198.81;;;2.68;66.59
64053;BME280;50299;49.524;8.536;2024-03-17T06:10:53;101207.03;;;2.73;67.42
64053;BME280;50299;49.524;8.536;2024-03-17T06:13:18;101211.78;;;2.83;68.73
64053;BME280;50299;49.524;8.536;2024-03-17T06:15:44;101205.63;;;2.98;70.72
64053;BME280;50299;49.524;8.536;2024-03-17T06:18:14;101194.28;;;3.11;70.35
64053;BME280;50299;49.524;8.536;2024-03-17T06:20:46;101192.47;;;3.22;67.81
64053;BME280;50299;49.524;8.536;2024-03-17T06:23:12;101196.66;;;3.29;69.12
64053;BME280;50299;49.524;8.536;2024-03-17T06:25:47;101202.47;;;3.43;70.56
64053;BME280;50299;49.524;8.536;2024-03-17T06:28:14;101196.53;;;3.56;70.85
64053;BME280;50299;49.524;8.536;2024-03-17T06:30:44;101197.75;;;3.71;69.54
64053;BME280;50299;49.524;8.536;2024-03-17T06:33:16;101201.50;;;3.59;67.30
64053;BME280;50299;49.524;8.536;2024-03-17T06:35:44;101202.31;;;3.60;65.76
64053;BME280;50299;49.524;8.536;2024-03-17T06:38:09;101193.84;;;3.61;65.75
64053;BME280;50299;49.524;8.536;2024-03-17T06:40:38;101184.81;;;3.61;65.46
64053;BME280;50299;49.524;8.536;2024-03-17T06:43:05;101188.97;;;3.74;65.47
64053;BME280;50299;49.524;8.536;2024-03-17T06:45:31;101186.03;;;3.85;66.20
64053;BME280;50299;49.524;8.536;2024-03-17T06:47:57;101192.13;;;3.98;65.62
64053;BME280;50299;49.524;8.536;2024-03-17T06:50:22;101185.09;;;4.17;64.97
64053;BME280;50299;49.524;8.536;2024-03-17T06:52:48;101192.28;;;4.38;64.19
64053;BME280;50299;49.524;8.536;2024-03-17T06:55:14;101187.13;;;4.52;63.99
64053;BME280;50299;49.524;8.536;2024-03-17T06:57:42;101190.69;;;4.58;64.56
64053;BME280;50299;49.524;8.536;2024-03-17T07:00:10;101189.63;;;4.69;66.47
64053;BME280;50299;49.524;8.536;2024-03-17T07:02:43;101184.19;;;4.95;66.28
64053;BME280;50299;49.524;8.536;2024-03-17T07:05:13;101177.59;;;5.36;64.43
64053;BME280;50299;49.524;8.536;2024-03-17T07:07:43;101176.41;;;5.73;65.91
64053;BME280;50299;49.524;8.536;2024-03-17T07:10:09;101177.81;;;6.40;67.30
64053;BME280;50299;49.524;8.536;2024-03-17T07:12:37;101178.44;;;7.06;65.64
64053;BME280;50299;49.524;8.536;2024-03-17T07:15:06;101181.78;;;7.66;64.98
64053;BME280;50299;49.524;8.536;2024-03-17T07:17:41;101179.03;;;8.33;61.53
64053;BME280;50299;49.524;8.536;2024-03-17T07:20:06;101180.69;;;8.91;59.07
64053;BME280;50299;49.524;8.536;2024-03-17T07:22:34;101180.72;;;9.37;59.15
64053;BME280;50299;49.524;8.536;2024-03-17T07:25:00;101186.50;;;9.54;57.35
64053;BME280;50299;49.524;8.536;2024-03-17T07:27:28;101190.19;;;9.63;58.78
64053;BME280;50299;49.524;8.536;2024-03-17T07:29:54;101183.53;;;9.65;57.86
64053;BME280;50299;49.524;8.536;2024-03-17T07:32:20;101190.53;;;9.90;59.08
64053;BME280;50299;49.524;8.536;2024-03-17T07:34:45;101193.09;;;10.14;52.85
64053;BME280;50299;49.524;8.536;2024-03-17T07:37:11;101188.34;;;10.42;48.64
64053;BME280;50299;49.524;8.536;2024-03-17T07:39:37;101188.69;;;10.76;55.55
64053;BME280;50299;49.524;8.536;2024-03-17T07:42:02;101191.75;;;11.11;55.50
64053;BME280;50299;49.524;8.536;2024-03-17T07:44:28;101180.69;;;11.42;53.65
64053;BME280;50299;49.524;8.536;2024-03-17T07:46:58;101185.44;;;11.73;49.02
64053;BME280;50299;49.524;8.536;2024-03-17T07:49:24;101180.44;;;11.92;53.38
64053;BME280;50299;49.524;8.536;2024-03-17T07:51:49;101179.44;;;12.37;50.93
64053;BME280;50299;49.524;8.536;2024-03-17T07:54:15;101185.06;;;12.80;52.65
64053;BME280;50299;49.524;8.536;2024-03-17T07:56:40;101190.25;;;13.16;49.52
64053;BME280;50299;49.524;8.536;2024-03-17T07:59:06;101185.16;;;13.18;47.98
64053;BME280;50299;49.524;8.536;2024-03-17T08:01:38;101189.75;;;13.14;49.14
64053;BME280;50299;49.524;8.536;2024-03-17T08:04:04;101192.03;;;13.29;49.84
64053;BME280;50299;49.524;8.536;2024-03-17T08:06:30;101196.91;;;13.41;47.54
64053;BME280;50299;49.524;8.536;2024-03-17T08:08:55;101199.81;;;13.36;48.52
64053;BME280;50299;49.524;8.536;2024-03-17T08:11:22;101204.59;;;13.18;49.02
64053;BME280;50299;49.524;8.536;2024-03-17T08:13:48;101200.53;;;13.07;49.53
64053;BME280;50299;49.524;8.536;2024-03-17T08:16:13;101209.19;;;13.05;49.42
64053;BME280;50299;49.524;8.536;2024-03-17T08:18:39;101208.22;;;12.93;49.96
64053;BME280;50299;49.524;8.536;2024-03-17T08:21:05;101211.47;;;12.77;49.05
64053;BME280;50299;49.524;8.536;2024-03-17T08:23:32;101199.84;;;12.58;49.25
64053;BME280;50299;49.524;8.536;2024-03-17T08:26:00;101197.72;;;12.46;49.51
64053;BME280;50299;49.524;8.536;2024-03-17T08:28:27;101193.00;;;12.38;50.17
64053;BME280;50299;49.524;8.536;2024-03-17T08:30:57;101193.13;;;12.42;51.51
64053;BME280;50299;49.524;8.536;2024-03-17T08:33:24;101192.50;;;12.45;49.54
64053;BME280;50299;49.524;8.536;2024-03-17T08:36:01;101188.44;;;12.59;50.48
64053;BME280;50299;49.524;8.536;2024-03-17T08:38:28;101192.53;;;12.62;49.75
64053;BME280;50299;49.524;8.536;2024-03-17T08:40:55;101193.03;;;12.64;48.35
64053;BME280;50299;49.524;8.536;2024-03-17T08:43:21;101190.78;;;12.83;48.38
64053;BME280;50299;49.524;8.536;2024-03-17T08:45:58;101183.72;;;12.60;48.98
64053;BME280;50299;49.524;8.536;2024-03-17T08:48:26;101175.03;;;12.44;49.29
64053;BME280;50299;49.524;8.536;2024-03-17T08:50:52;101168.34;;;12.37;46.27
64053;BME280;50299;49.524;8.536;2024-03-17T08:53:19;101173.91;;;12.45;52.15
64053;BME280;50299;49.524;8.536;2024-03-17T08:55:45;101187.28;;;12.61;49.91
64053;BME280;50299;49.524;8.536;2024-03-17T08:58:10;101180.78;;;12.74;51.25
64053;BME280;50299;49.524;8.536;2024-03-17T09:00:36;101173.59;;;12.99;51.44
64053;BME280;50299;49.524;8.536;2024-03-17T09:03:03;101164.06;;;13.35;50.51
64053;BME280;50299;49.524;8.536;2024-03-17T09:05:34;101173.53;;;13.51;45.57
64053;BME280;50299;49.524;8.536;2024-03-17T09:08:00;101174.66;;;13.59;47.16
64053;BME280;50299;49.524;8.536;2024-03-17T09:10:26;101183.75;;;13.68;47.55
64053;BME280;50299;49.524;8.536;2024-03-17T09:12:51;101176.59;;;13.67;48.84
64053;BME280;50299;49.524;8.536;2024-03-17T09:15:17;101176.53;;;13.75;46.47
64053;BME280;50299;49.524;8.536;2024-03-17T09:17:43;101175.63;;;13.63;45.92
64053;BME280;50299;49.524;8.536;2024-03-17T09:20:12;101175.94;;;13.70;47.24
64053;BME280;50299;49.524;8.536;2024-03-17T09:22:38;101166.78;;;13.61;44.91
64053;BME280;50299;49.524;8.536;2024-03-17T09:25:08;101157.84;;;13.55;48.24
64053;BME280;50299;49.524;8.536;2024-03-17T09:27:34;101156.69;;;13.56;45.84
64053;BME280;50299;49.524;8.536;2024-03-17T09:30:00;101154.25;;;13.54;46.14
64053;BME280;50299;49.524;8.536;2024-03-17T09:32:26;101160.59;;;13.55;48.16
64053;BME280;50299;49.524;8.536;2024-03-17T09:34:51;101149.75;;;13.71;47.73
64053;BME280;50299;49.524;8.536;2024-03-17T09:37:17;101156.81;;;13.98;46.41
64053;BME280;50299;49.524;8.536;2024-03-17T09:39:42;101162.09;;;14.20;44.67
64053;BME280;50299;49.524;8.536;2024-03-17T09:42:17;101168.41;;;14.29;47.14
64053;BME280;50299;49.524;8.536;2024-03-17T09:44:48;101167.19;;;14.48;45.91
64053;BME280;50299;49.524;8.536;2024-03-17T09:47:18;101160.50;;;14.82;47.23
64053;BME280;50299;49.524;8.536;2024-03-17T09:49:50;101166.91;;;15.16;46.28
64053;BME280;50299;49.524;8.536;2024-03-17T09:52:21;101155.59;;;15.33;43.58
64053;BME280;50299;49.524;8.536;2024-03-17T09:55:16;101160.00;;;15.34;42.73
64053;BME280;50299;49.524;8.536;2024-03-17T09:57:45;101160.13;;;15.38;47.46
64053;BME280;50299;49.524;8.536;2024-03-17T10:00:14;101161.81;;;15.51;49.44
64053;BME280;50299;49.524;8.536;2024-03-17T10:02:46;101171.78;;;15.64;44.00
64053;BME280;50299;49.524;8.536;2024-03-17T10:05:20;101168.78;;;15.82;45.68
64053;BME280;50299;49.524;8.536;2024-03-17T10:07:49;101166.81;;;15.82;41.54
64053;BME280;50299;49.524;8.536;2024-03-17T10:10:16;101172.28;;;15.91;44.15
64053;BME280;50299;49.524;8.536;2024-03-17T10:12:43;101162.44;;;15.93;41.18
64053;BME280;50299;49.524;8.536;2024-03-17T10:15:12;101162.84;;;15.83;38.99
64053;BME280;50299;49.524;8.536;2024-03-17T10:17:38;101153.09;;;15.77;42.51
64053;BME280;50299;49.524;8.536;2024-03-17T10:20:17;101157.31;;;15.95;44.50
64053;BME280;50299;49.524;8.536;2024-03-17T10:23:04;101168.22;;;16.25;46.89
64053;BME280;50299;49.524;8.536;2024-03-17T10:25:38;101160.16;;;16.48;45.38
64053;BME280;50299;49.524;8.536;2024-03-17T10:28:10;101160.94;;;16.61;39.82
64053;BME280;50299;49.524;8.536;2024-03-17T10:30:36;101158.13;;;16.61;42.01
64053;BME280;50299;49.524;8.536;2024-03-17T10:33:02;101159.66;;;16.70;44.69
64053;BME280;50299;49.524;8.536;2024-03-17T10:35:34;101160.94;;;17.01;45.02
64053;BME280;50299;49.524;8.536;2024-03-17T10:38:01;101158.22;;;17.33;44.92
64053;BME280;50299;49.524;8.536;2024-03-17T10:40:28;101149.31;;;17.59;42.83
64053;BME280;50299;49.524;8.536;2024-03-17T10:43:01;101151.56;;;17.85;43.74
64053;BME280;50299;49.524;8.536;2024-03-17T10:45:29;101154.88;;;18.06;36.37
64053;BME280;50299;49.524;8.536;2024-03-17T10:48:01;101145.78;;;18.09;39.81
64053;BME280;50299;49.524;8.536;2024-03-17T10:50:35;101148.13;;;18.23;40.56
64053;BME280;50299;49.524;8.536;2024-03-17T10:53:04;101153.03;;;18.10;37.29
64053;BME280;50299;49.524;8.536;2024-03-17T10:55:45;101148.75;;;17.85;36.26
64053;BME280;50299;49.524;8.536;2024-03-17T10:58:28;101144.16;;;17.76;40.55
64053;BME280;50299;49.524;8.536;2024-03-17T11:01:00;101139.13;;;17.66;39.74
64053;BME280;50299;49.524;8.536;2024-03-17T11:03:31;101134.00;;;17.53;40.29
64053;BME280;50299;49.524;8.536;2024-03-17T11:05:57;101127.81;;;17.31;39.79
64053;BME280;50299;49.524;8.536;2024-03-17T11:08:24;101138.50;;;17.13;38.98
64053;BME280;50299;49.524;8.536;2024-03-17T11:10:52;101125.38;;;16.86;39.46
64053;BME280;50299;49.524;8.536;2024-03-17T11:13:25;101122.38;;;16.50;41.48
64053;BME280;50299;49.524;8.536;2024-03-17T11:15:52;101119.28;;;16.27;39.62
64053;BME280;50299;49.524;8.536;2024-03-17T11:21:18;101118.63;;;16.06;40.85
64053;BME280;50299;49.524;8.536;2024-03-17T11:24:02;101117.22;;;16.00;40.40
64053;BME280;50299;49.524;8.536;2024-03-17T11:26:33;101109.31;;;16.02;40.81
64053;BME280;50299;49.524;8.536;2024-03-17T11:29:00;101104.78;;;16.10;42.09
64053;BME280;50299;49.524;8.536;2024-03-17T11:31:35;101107.00;;;15.43;38.41
64053;BME280;50299;49.524;8.536;2024-03-17T11:34:02;101106.38;;;15.37;41.05
64053;BME280;50299;49.524;8.536;2024-03-17T11:36:37;101101.84;;;15.20;42.36
64053;BME280;50299;49.524;8.536;2024-03-17T11:39:10;101100.66;;;15.21;44.03
64053;BME280;50299;49.524;8.536;2024-03-17T11:41:53;101095.09;;;15.21;43.42
64053;BME280;50299;49.524;8.536;2024-03-17T11:49:32;101100.91;;;15.28;46.53
64053;BME280;50299;49.524;8.536;2024-03-17T11:52:05;101097.31;;;15.28;42.17
64053;BME280;50299;49.524;8.536;2024-03-17T11:54:35;101101.03;;;15.20;40.59
64053;BME280;50299;49.524;8.536;2024-03-17T11:57:06;101101.38;;;15.18;42.58
64053;BME280;50299;49.524;8.536;2024-03-17T11:59:32;101096.50;;;15.15;42.89
64053;BME280;50299;49.524;8.536;2024-03-17T12:01:58;101096.88;;;15.05;43.23
64053;BME280;50299;49.524;8.536;2024-03-17T12:04:24;101097.59;;;15.02;41.83
64053;BME280;50299;49.524;8.536;2024-03-17T12:06:52;101093.63;;;14.91;42.73
64053;BME280;50299;49.524;8.536;2024-03-17T12:09:20;101098.78;;;15.13;43.43
64053;BME280;50299;49.524;8.536;2024-03-17T12:14:28;101091.81;;;15.07;40.85
64053;BME280;50299;49.524;8.536;2024-03-17T12:16:59;101085.00;;;15.17;43.28
64053;BME280;50299;49.524;8.536;2024-03-17T12:19:25;101092.69;;;15.32;42.71
64053;BME280;50299;49.524;8.536;2024-03-17T12:21:56;101091.66;;;15.37;41.82
64053;BME280;50299;49.524;8.536;2024-03-17T12:24:25;101085.94;;;15.33;46.34
64053;BME280;50299;49.524;8.536;2024-03-17T12:26:52;101089.09;;;15.32;41.95
64053;BME280;50299;49.524;8.536;2024-03-17T12:29:29;101080.59;;;15.16;43.26
64053;BME280;50299;49.524;8.536;2024-03-17T12:31:59;101079.09;;;15.18;43.79
64053;BME280;50299;49.524;8.536;2024-03-17T12:34:27;101066.69;;;14.83;44.07
64053;BME280;50299;49.524;8.536;2024-03-17T12:36:54;101068.56;;;14.91;44.66
64053;BME280;50299;49.524;8.536;2024-03-17T12:39:32;101068.06;;;14.89;43.41
64053;BME280;50299;49.524;8.536;2024-03-17T12:42:05;101066.03;;;14.98;46.77
64053;BME280;50299;49.524;8.536;2024-03-17T12:44:37;101064.44;;;14.76;41.39
64053;BME280;50299;49.524;8.536;2024-03-17T12:47:04;101058.56;;;14.44;42.05
64053;BME280;50299;49.524;8.536;2024-03-17T12:49:32;101054.59;;;14.24;42.92
64053;BME280;50299;49.524;8.536;2024-03-17T12:52:01;101051.00;;;14.45;44.21
64053;BME280;50299;49.524;8.536;2024-03-17T12:54:28;101050.34;;;14.48;44.69
64053;BME280;50299;49.524;8.536;2024-03-17T12:57:05;101049.00;;;14.66;47.84
64053;BME280;50299;49.524;8.536;2024-03-17T12:59:49;101049.97;;;14.83;47.45
64053;BME280;50299;49.524;8.536;2024-03-17T13:02:34;101050.38;;;14.93;51.34
64053;BME280;50299;49.524;8.536;2024-03-17T13:05:16;101050.69;;;14.92;41.64
64053;BME280;50299;49.524;8.536;2024-03-17T13:07:46;101035.38;;;14.86;43.38
64053;BME280;50299;49.524;8.536;2024-03-17T13:10:13;101037.22;;;14.82;46.34
64053;BME280;50299;49.524;8.536;2024-03-17T13:12:40;101033.16;;;14.79;43.08